Jamie Marie — WDE7178 — position and weather

sailwx.info

Track history (hours):
 
Tides and Currents Weather Stations Pressure Air Temp Water Temp Dewpoint Dewpoint Depression Visibility Wind Speed Wind Dir Waves Ship Positions

Jamie Marie

Owner: Jamie Marie, Inc., Aberdeen, WA. More information available from US FCC via Universal Licensing System and Coast Guard Vessel Documentation Center.

Last reported at 2015-Jul-05 04:18 UTC. Time now 2015-Jul-05 15:04 UTC.
Position N 46°54' W 124°06'.

Length 30 m.

Type: Fishing. MMSI: 366425240.

Date/timePositionNaut miles runAvg speedWind from/ knotsBaromVisibWave heightAir tempDewpointWater temp
2015-Jul-05 04:18N 46°54' W 124°06'0 0.0
2015-Jul-05 03:21N 46°54' W 124°06'0 0.0
2015-Jul-05 02:27N 46°54' W 124°06'0 0.0
2015-Jul-05 01:29N 46°54' W 124°06'0 0.0
2015-Jul-04 12:18N 46°54' W 124°06'0 0.0
2015-Jul-04 10:04N 46°54' W 124°06'0 0.0
2015-Jul-04 09:09N 46°54' W 124°06'0 0.0
2015-Jul-04 06:25N 46°54' W 124°06'76 2.8
2015-Jul-03 03:25N 47°57' W 125°09'1 1.0
2015-Jul-03 02:33N 47°58' W 125°09'1 1.0
2015-Jul-03 01:33N 47°57' W 125°09'2 1.7
2015-Jul-03 00:33N 47°55' W 125°08'2 1.9
2015-Jul-02 23:33N 47°54' W 125°07'11 0.7
2015-Jul-02 07:17N 48°04' W 125°12'2 2.3
2015-Jul-02 06:34N 48°03' W 125°11'3 3.4
2015-Jul-02 05:33N 47°60' W 125°09'2 1.7
2015-Jul-02 04:13N 47°57' W 125°09'1 1.7
2015-Jul-02 03:33N 47°56' W 125°09'2 1.7
2015-Jul-02 02:33N 47°55' W 125°08'7 1.4
2015-Jul-01 21:25N 48°02' W 125°06'32 0.9
2015-Jun-30 08:07N 47°30' W 124°57'36 4.9
2015-Jun-30 00:48N 46°56' W 124°43'5 2.5
2015-Jun-29 22:50N 47°00' W 124°47'  
2015-Jun-27 06:33N 46°59' W 124°30'6 6.1
2015-Jun-27 05:31N 47°01' W 124°39'6 3.0
2015-Jun-27 03:33N 47°05' W 124°45'2 2.0
2015-Jun-27 02:28N 47°06' W 124°48'1 1.4
2015-Jun-27 01:31N 47°07' W 124°48'2 1.9
2015-Jun-27 00:33N 47°09' W 124°48'2 1.6
2015-Jun-26 23:33N 47°08' W 124°47'2 1.7
2015-Jun-26 22:33N 47°06' W 124°47'1 0.5
2015-Jun-26 21:30N 47°06' W 124°47'2 1.7
2015-Jun-26 20:33N 47°08' W 124°47'2 1.4
2015-Jun-26 19:30N 47°09' W 124°48'3 1.0
2015-Jun-26 16:17N 47°06' W 124°47'2 1.8
2015-Jun-26 15:25N 47°08' W 124°47'6 5.9
2015-Jun-26 14:26N 47°14' W 124°48'1 1.3
2015-Jun-26 13:21N 47°12' W 124°47'1 1.0
2015-Jun-26 12:20N 47°13' W 124°46'1 1.8
2015-Jun-26 11:30N 47°15' W 124°47'42 3.4
2015-Jun-25 23:04N 47°55' W 125°01'2 0.5
2015-Jun-25 18:13N 47°56' W 125°05'2 2.1
2015-Jun-25 17:27N 47°58' W 125°05'0 0.5
2015-Jun-25 16:33N 47°57' W 125°05'2 1.2
2015-Jun-25 15:12N 47°59' W 125°06'1 1.5
2015-Jun-25 14:23N 47°59' W 125°07'3 0.9
2015-Jun-25 11:33N 48°02' W 125°08'0 0.3
2015-Jun-25 10:30N 48°02' W 125°08'8 2.8
2015-Jun-25 07:26N 47°55' W 125°02'15 7.5
2015-Jun-25 05:29N 47°41' W 124°54'7 7.5
2015-Jun-25 04:33N 47°36' W 124°48'  
Track history (hours):
 
Tides and Currents Weather Stations Pressure Air Temp Water Temp Dewpoint Dewpoint Depression Visibility Wind Speed Wind Dir Waves Ship Positions

Jamie Marie

Owner: Jamie Marie, Inc., Aberdeen, WA. More information available from US FCC via Universal Licensing System and Coast Guard Vessel Documentation Center.

Last reported at 2015-Jul-05 04:18 UTC. Time now 2015-Jul-05 15:04 UTC.
Position N 46°54' W 124°06'.

Length 30 m.

Type: Fishing. MMSI: 366425240.

Date/timePositionNaut miles runAvg speedWind from/ knotsBaromVisibWave heightAir tempDewpointWater temp
2015-Jul-05 04:18N 46°54' W 124°06'0 0.0
2015-Jul-05 03:21N 46°54' W 124°06'0 0.0
2015-Jul-05 02:27N 46°54' W 124°06'0 0.0
2015-Jul-05 01:29N 46°54' W 124°06'0 0.0
2015-Jul-04 12:18N 46°54' W 124°06'0 0.0
2015-Jul-04 10:04N 46°54' W 124°06'0 0.0
2015-Jul-04 09:09N 46°54' W 124°06'0 0.0
2015-Jul-04 06:25N 46°54' W 124°06'76 2.8
2015-Jul-03 03:25N 47°57' W 125°09'1 1.0
2015-Jul-03 02:33N 47°58' W 125°09'1 1.0
2015-Jul-03 01:33N 47°57' W 125°09'2 1.7
2015-Jul-03 00:33N 47°55' W 125°08'2 1.9
2015-Jul-02 23:33N 47°54' W 125°07'11 0.7
2015-Jul-02 07:17N 48°04' W 125°12'2 2.3
2015-Jul-02 06:34N 48°03' W 125°11'3 3.4
2015-Jul-02 05:33N 47°60' W 125°09'2 1.7
2015-Jul-02 04:13N 47°57' W 125°09'1 1.7
2015-Jul-02 03:33N 47°56' W 125°09'2 1.7
2015-Jul-02 02:33N 47°55' W 125°08'7 1.4
2015-Jul-01 21:25N 48°02' W 125°06'32 0.9
2015-Jun-30 08:07N 47°30' W 124°57'36 4.9
2015-Jun-30 00:48N 46°56' W 124°43'5 2.5
2015-Jun-29 22:50N 47°00' W 124°47'  
2015-Jun-27 06:33N 46°59' W 124°30'6 6.1
2015-Jun-27 05:31N 47°01' W 124°39'6 3.0
2015-Jun-27 03:33N 47°05' W 124°45'2 2.0
2015-Jun-27 02:28N 47°06' W 124°48'1 1.4
2015-Jun-27 01:31N 47°07' W 124°48'2 1.9
2015-Jun-27 00:33N 47°09' W 124°48'2 1.6
2015-Jun-26 23:33N 47°08' W 124°47'2 1.7
2015-Jun-26 22:33N 47°06' W 124°47'1 0.5
2015-Jun-26 21:30N 47°06' W 124°47'2 1.7
2015-Jun-26 20:33N 47°08' W 124°47'2 1.4
2015-Jun-26 19:30N 47°09' W 124°48'3 1.0
2015-Jun-26 16:17N 47°06' W 124°47'2 1.8
2015-Jun-26 15:25N 47°08' W 124°47'6 5.9
2015-Jun-26 14:26N 47°14' W 124°48'1 1.3
2015-Jun-26 13:21N 47°12' W 124°47'1 1.0
2015-Jun-26 12:20N 47°13' W 124°46'1 1.8
2015-Jun-26 11:30N 47°15' W 124°47'42 3.4
2015-Jun-25 23:04N 47°55' W 125°01'2 0.5
2015-Jun-25 18:13N 47°56' W 125°05'2 2.1
2015-Jun-25 17:27N 47°58' W 125°05'0 0.5
2015-Jun-25 16:33N 47°57' W 125°05'2 1.2
2015-Jun-25 15:12N 47°59' W 125°06'1 1.5
2015-Jun-25 14:23N 47°59' W 125°07'3 0.9
2015-Jun-25 11:33N 48°02' W 125°08'0 0.3
2015-Jun-25 10:30N 48°02' W 125°08'8 2.8
2015-Jun-25 07:26N 47°55' W 125°02'15 7.5
2015-Jun-25 05:29N 47°41' W 124°54'7 7.5
2015-Jun-25 04:33N 47°36' W 124°48'  

Dump ship's entire track history